PWSweather.com
Personal Weather Stations
Station Observations
RYAN1946
Layla Drive, Medford, OR 97501

Layla DriveMedford, OR 97501

Lat: 42.31, Lon: -122.9

Elevation: 1491

Station Type:

http://www.ryanweather.com

High Low Average
Temperature 49.2°F9.6°C 39.2°F4.0°C 44.0°F6.7°C
Dew Point 38.5°F3.6°C 32.7°F0.4°C 35.6°F2.0°C
Winds 12.0 mph 19.3 kmh Calm Calm 6.0 mph WSW9.7 kmh WSW
Wind Gusts 16.0 mph25.7 kmh -- 10.0 mph16.1 kmh
Humidity 84% 61% 73%
Pressure 29.93 in1013.5 mb 29.65 in1004.1 mb -
Precipitation 0.04 in1.0 mm - -
Hour Temp Dew Point Humidity Winds Wind Gusts Pressure Precip Precip Rate Daily Precip Total
09:00 AM 39.2°F4.0°C 34.8°F1.6°C 84% 1.0 mph WNW1.6 kmh WNW 2.0 mph3.2 kmh 29.65 in1004.1 mb 0.00 in0.0 mm 0.00 in/hr0.0 mm/hr 0.04 in1.0 mm
09:10 AM 39.2°F4.0°C 34.8°F1.6°C 84% Calm Calm -- 29.66 in1004.4 mb 0.00 in0.0 mm 0.00 in/hr0.0 mm/hr 0.04 in1.0 mm
09:20 AM 39.3°F4.1°C 34.9°F1.6°C 84% 3.0 mph WSW4.8 kmh WSW 6.0 mph9.7 kmh 29.67 in1004.7 mb 0.00 in0.0 mm 0.00 in/hr0.0 mm/hr 0.04 in1.0 mm
09:30 AM 39.9°F4.4°C 35.2°F1.8°C 83% 5.0 mph W8.0 kmh W 12.0 mph19.3 kmh 29.68 in1005.1 mb 0.00 in0.0 mm 0.00 in/hr0.0 mm/hr 0.04 in1.0 mm
09:40 AM 40.2°F4.6°C 35.4°F1.9°C 83% 5.0 mph WSW8.0 kmh WSW 6.0 mph9.7 kmh 29.68 in1005.1 mb 0.00 in0.0 mm 0.00 in/hr0.0 mm/hr 0.04 in1.0 mm
09:50 AM 40.5°F4.7°C 35.4°F1.9°C 82% 8.0 mph SW12.9 kmh SW 13.0 mph20.9 kmh 29.69 in1005.4 mb 0.00 in0.0 mm 0.00 in/hr0.0 mm/hr 0.04 in1.0 mm
10:00 AM 40.6°F4.8°C 35.2°F1.8°C 81% 7.0 mph WSW11.3 kmh WSW 7.0 mph11.3 kmh 29.70 in1005.8 mb 0.00 in0.0 mm 0.00 in/hr0.0 mm/hr 0.04 in1.0 mm
10:10 AM 40.8°F4.9°C 35.4°F1.9°C 81% 6.0 mph WSW9.7 kmh WSW 10.0 mph16.1 kmh 29.71 in1006.1 mb 0.00 in0.0 mm 0.00 in/hr0.0 mm/hr 0.04 in1.0 mm
10:20 AM 41.1°F5.1°C 35.7°F2.1°C 81% 3.0 mph WNW4.8 kmh WNW 8.0 mph12.9 kmh 29.72 in1006.4 mb 0.00 in0.0 mm 0.00 in/hr0.0 mm/hr 0.04 in1.0 mm
10:30 AM 41.3°F5.2°C 36.3°F2.4°C 82% 5.0 mph WSW8.0 kmh WSW 5.0 mph8.0 kmh 29.72 in1006.4 mb 0.00 in0.0 mm 0.00 in/hr0.0 mm/hr 0.04 in1.0 mm
10:40 AM 41.8°F5.4°C 36.4°F2.4°C 81% 3.0 mph WNW4.8 kmh WNW 6.0 mph9.7 kmh 29.73 in1006.8 mb 0.00 in0.0 mm 0.00 in/hr0.0 mm/hr 0.04 in1.0 mm
10:50 AM 42.3°F5.7°C 36.2°F2.3°C 79% 6.0 mph SW9.7 kmh SW 7.0 mph11.3 kmh 29.73 in1006.8 mb 0.00 in0.0 mm 0.00 in/hr0.0 mm/hr 0.04 in1.0 mm
11:00 AM 42.8°F6.0°C 37.1°F2.8°C 80% 6.0 mph W9.7 kmh W 10.0 mph16.1 kmh 29.74 in1007.1 mb 0.00 in0.0 mm 0.00 in/hr0.0 mm/hr 0.04 in1.0 mm
11:10 AM 43.6°F6.4°C 38.5°F3.6°C 82% 7.0 mph SW11.3 kmh SW 9.0 mph14.5 kmh 29.76 in1007.8 mb 0.00 in0.0 mm 0.00 in/hr0.0 mm/hr 0.04 in1.0 mm
11:20 AM 44.0°F6.7°C 36.9°F2.7°C 76% 6.0 mph SW9.7 kmh SW 10.0 mph16.1 kmh 29.76 in1007.8 mb 0.00 in0.0 mm 0.00 in/hr0.0 mm/hr 0.04 in1.0 mm
11:30 AM 43.9°F6.6°C 36.8°F2.7°C 76% 8.0 mph WSW12.9 kmh WSW 12.0 mph19.3 kmh 29.77 in1008.1 mb 0.00 in0.0 mm 0.00 in/hr0.0 mm/hr 0.04 in1.0 mm
11:40 AM 44.1°F6.7°C 36.4°F2.4°C 74% 6.0 mph WSW9.7 kmh WSW 7.0 mph11.3 kmh 29.78 in1008.5 mb 0.00 in0.0 mm 0.00 in/hr0.0 mm/hr 0.04 in1.0 mm
11:50 AM 44.3°F6.8°C 37.2°F2.9°C 76% 7.0 mph W11.3 kmh W 10.0 mph16.1 kmh 29.78 in1008.5 mb 0.00 in0.0 mm 0.00 in/hr0.0 mm/hr 0.04 in1.0 mm
12:00 PM 44.3°F6.8°C 36.5°F2.5°C 74% 9.0 mph W14.5 kmh W 15.0 mph24.1 kmh 29.79 in1008.8 mb 0.00 in0.0 mm 0.00 in/hr0.0 mm/hr 0.04 in1.0 mm
12:10 PM 45.7°F7.6°C 36.5°F2.5°C 70% 9.0 mph WSW14.5 kmh WSW 13.0 mph20.9 kmh 29.79 in1008.8 mb 0.00 in0.0 mm 0.00 in/hr0.0 mm/hr 0.04 in1.0 mm
12:20 PM 45.5°F7.5°C 35.9°F2.2°C 69% 12.0 mph W19.3 kmh W 16.0 mph25.7 kmh 29.80 in1009.1 mb 0.00 in0.0 mm 0.00 in/hr0.0 mm/hr 0.04 in1.0 mm
12:30 PM 46.0°F7.8°C 36.4°F2.4°C 69% 9.0 mph WSW14.5 kmh WSW 13.0 mph20.9 kmh 29.79 in1008.8 mb 0.00 in0.0 mm 0.00 in/hr0.0 mm/hr 0.04 in1.0 mm
12:40 PM 46.9°F8.3°C 36.5°F2.5°C 67% 10.0 mph W16.1 kmh W 13.0 mph20.9 kmh 29.79 in1008.8 mb 0.00 in0.0 mm 0.00 in/hr0.0 mm/hr 0.04 in1.0 mm
12:50 PM 47.0°F8.3°C 36.6°F2.6°C 67% 10.0 mph WSW16.1 kmh WSW 15.0 mph24.1 kmh 29.80 in1009.1 mb 0.00 in0.0 mm 0.00 in/hr0.0 mm/hr 0.04 in1.0 mm
01:00 PM 46.0°F7.8°C 36.0°F2.2°C 68% 6.0 mph SW9.7 kmh SW 12.0 mph19.3 kmh 29.81 in1009.5 mb 0.00 in0.0 mm 0.00 in/hr0.0 mm/hr 0.04 in1.0 mm
01:10 PM 47.9°F8.8°C 37.9°F3.3°C 68% 5.0 mph WSW8.0 kmh WSW 12.0 mph19.3 kmh 29.80 in1009.1 mb 0.00 in0.0 mm 0.00 in/hr0.0 mm/hr 0.04 in1.0 mm
01:20 PM 48.2°F9.0°C 36.2°F2.3°C 63% 6.0 mph SW9.7 kmh SW 12.0 mph19.3 kmh 29.80 in1009.1 mb 0.00 in0.0 mm 0.00 in/hr0.0 mm/hr 0.04 in1.0 mm
01:30 PM 47.3°F8.5°C 35.3°F1.8°C 63% 10.0 mph SW16.1 kmh SW 15.0 mph24.1 kmh 29.81 in1009.5 mb 0.00 in0.0 mm 0.00 in/hr0.0 mm/hr 0.04 in1.0 mm
01:40 PM 47.3°F8.5°C 34.5°F1.4°C 61% 6.0 mph SW9.7 kmh SW 10.0 mph16.1 kmh 29.81 in1009.5 mb 0.00 in0.0 mm 0.00 in/hr0.0 mm/hr 0.04 in1.0 mm
01:50 PM 49.2°F9.6°C 36.3°F2.4°C 61% 7.0 mph WSW11.3 kmh WSW 7.0 mph11.3 kmh 29.81 in1009.5 mb 0.00 in0.0 mm 0.00 in/hr0.0 mm/hr 0.04 in1.0 mm
02:00 PM 48.1°F8.9°C 36.5°F2.5°C 64% 7.0 mph W11.3 kmh W 10.0 mph16.1 kmh 29.82 in1009.8 mb 0.00 in0.0 mm 0.00 in/hr0.0 mm/hr 0.04 in1.0 mm
02:10 PM 46.8°F8.2°C 34.5°F1.4°C 62% 7.0 mph W11.3 kmh W 13.0 mph20.9 kmh 29.82 in1009.8 mb 0.00 in0.0 mm 0.00 in/hr0.0 mm/hr 0.04 in1.0 mm
02:20 PM 45.8°F7.7°C 35.1°F1.7°C 66% 5.0 mph NW8.0 kmh NW 7.0 mph11.3 kmh 29.82 in1009.8 mb 0.00 in0.0 mm 0.00 in/hr0.0 mm/hr 0.04 in1.0 mm
02:30 PM 45.2°F7.3°C 35.6°F2.0°C 69% 6.0 mph WSW9.7 kmh WSW 10.0 mph16.1 kmh 29.83 in1010.2 mb 0.00 in0.0 mm 0.00 in/hr0.0 mm/hr 0.04 in1.0 mm
02:40 PM 45.1°F7.3°C 34.0°F1.1°C 65% 7.0 mph SSW11.3 kmh SSW 7.0 mph11.3 kmh 29.84 in1010.5 mb 0.00 in0.0 mm 0.00 in/hr0.0 mm/hr 0.04 in1.0 mm
02:50 PM 44.9°F7.2°C 33.1°F0.6°C 63% 7.0 mph WSW11.3 kmh WSW 9.0 mph14.5 kmh 29.84 in1010.5 mb 0.00 in0.0 mm 0.00 in/hr0.0 mm/hr 0.04 in1.0 mm
03:00 PM 45.0°F7.2°C 32.7°F0.4°C 62% 6.0 mph WSW9.7 kmh WSW 12.0 mph19.3 kmh 29.85 in1010.8 mb 0.00 in0.0 mm 0.00 in/hr0.0 mm/hr 0.04 in1.0 mm
03:10 PM 44.9°F7.2°C 32.7°F0.4°C 62% 10.0 mph WSW16.1 kmh WSW 13.0 mph20.9 kmh 29.86 in1011.2 mb 0.00 in0.0 mm 0.00 in/hr0.0 mm/hr 0.04 in1.0 mm
03:20 PM 44.8°F7.1°C 34.9°F1.6°C 68% 6.0 mph WNW9.7 kmh WNW 9.0 mph14.5 kmh 29.87 in1011.5 mb 0.00 in0.0 mm 0.00 in/hr0.0 mm/hr 0.04 in1.0 mm
03:30 PM 44.2°F6.8°C 36.1°F2.3°C 73% 6.0 mph WNW9.7 kmh WNW 9.0 mph14.5 kmh 29.87 in1011.5 mb 0.00 in0.0 mm 0.00 in/hr0.0 mm/hr 0.04 in1.0 mm
03:40 PM 43.4°F6.3°C 36.0°F2.2°C 75% 9.0 mph WSW14.5 kmh WSW 13.0 mph20.9 kmh 29.89 in1012.2 mb 0.00 in0.0 mm 0.00 in/hr0.0 mm/hr 0.04 in1.0 mm
03:50 PM 43.2°F6.2°C 35.5°F1.9°C 74% 7.0 mph NW11.3 kmh NW 8.0 mph12.9 kmh 29.91 in1012.9 mb 0.00 in0.0 mm 0.00 in/hr0.0 mm/hr 0.04 in1.0 mm
04:00 PM 43.4°F6.3°C 36.3°F2.4°C 76% 7.0 mph WNW11.3 kmh WNW 9.0 mph14.5 kmh 29.91 in1012.9 mb 0.00 in0.0 mm 0.00 in/hr0.0 mm/hr 0.04 in1.0 mm
04:10 PM 43.4°F6.3°C 35.0°F1.7°C 72% 3.0 mph W4.8 kmh W 6.0 mph9.7 kmh 29.92 in1013.2 mb 0.00 in0.0 mm 0.00 in/hr0.0 mm/hr 0.04 in1.0 mm
04:20 PM 43.2°F6.2°C 34.8°F1.6°C 72% 6.0 mph W9.7 kmh W 12.0 mph19.3 kmh 29.92 in1013.2 mb 0.00 in0.0 mm 0.00 in/hr0.0 mm/hr 0.04 in1.0 mm
04:30 PM 42.8°F6.0°C 34.4°F1.3°C 72% 8.0 mph WSW12.9 kmh WSW 12.0 mph19.3 kmh 29.93 in1013.5 mb 0.00 in0.0 mm 0.00 in/hr0.0 mm/hr 0.04 in1.0 mm
04:40 PM 42.1°F5.6°C 33.4°F0.8°C 71% 6.0 mph SW9.7 kmh SW 10.0 mph16.1 kmh 29.93 in1013.5 mb 0.00 in0.0 mm 0.00 in/hr0.0 mm/hr 0.04 in1.0 mm
04:50 PM 41.9°F5.5°C 33.2°F0.7°C 71% 7.0 mph SW11.3 kmh SW 10.0 mph16.1 kmh 29.93 in1013.5 mb 0.00 in0.0 mm 0.00 in/hr0.0 mm/hr 0.04 in1.0 mm
05:00 PM 41.9°F5.5°C 33.2°F0.7°C 71% 5.0 mph WSW8.0 kmh WSW 9.0 mph14.5 kmh 29.93 in1013.5 mb 0.00 in0.0 mm 0.00 in/hr0.0 mm/hr 0.04 in1.0 mm
05:10 PM 41.8°F5.4°C 33.1°F0.6°C 71% 5.0 mph WSW8.0 kmh WSW 6.0 mph9.7 kmh 29.94 in1013.9 mb 0.00 in0.0 mm 0.00 in/hr0.0 mm/hr 0.04 in1.0 mm
05:20 PM 42.1°F5.6°C 33.7°F0.9°C 72% 5.0 mph WSW8.0 kmh WSW 6.0 mph9.7 kmh 29.95 in1014.2 mb 0.00 in0.0 mm 0.00 in/hr0.0 mm/hr 0.04 in1.0 mm
05:30 PM 41.8°F5.4°C 32.7°F0.4°C 70% 6.0 mph SW9.7 kmh SW 9.0 mph14.5 kmh 29.96 in1014.6 mb 0.00 in0.0 mm 0.00 in/hr0.0 mm/hr 0.04 in1.0 mm
05:40 PM 40.9°F4.9°C 32.2°F0.1°C 71% 5.0 mph W8.0 kmh W 6.0 mph9.7 kmh 29.96 in1014.6 mb 0.00 in0.0 mm 0.00 in/hr0.0 mm/hr 0.04 in1.0 mm
05:50 PM 40.4°F4.7°C 31.7°F-0.2°C 71% 2.0 mph WSW3.2 kmh WSW 2.0 mph3.2 kmh 29.96 in1014.6 mb 0.00 in0.0 mm 0.00 in/hr0.0 mm/hr 0.04 in1.0 mm
06:00 PM 40.3°F4.6°C 31.6°F-0.2°C 71% Calm Calm -- 29.96 in1014.6 mb 0.00 in0.0 mm 0.00 in/hr0.0 mm/hr 0.04 in1.0 mm